createdAt,value
2018-06-11T00:01:54.623Z,22.52
2018-06-11T00:04:23.909Z,22.22
2018-06-11T00:06:53.149Z,23.92
2018-06-11T00:09:22.377Z,23.75
2018-06-11T00:11:51.663Z,24.63
2018-06-11T00:14:20.919Z,20.68
2018-06-11T00:16:50.502Z,23.52
2018-06-11T00:19:19.760Z,22.13
2018-06-11T00:21:49.049Z,21.82
2018-06-11T00:24:18.345Z,22.45
2018-06-11T00:26:47.580Z,21.30
2018-06-11T00:29:16.860Z,22.10
2018-06-11T00:31:46.107Z,21.97
2018-06-11T00:34:15.805Z,18.75
2018-06-11T00:36:45.104Z,21.02
2018-06-11T00:39:14.357Z,21.07
2018-06-11T00:41:43.593Z,22.27
2018-06-11T00:44:12.850Z,21.25
2018-06-11T00:46:42.082Z,20.27
2018-06-11T00:49:11.439Z,18.30
2018-06-11T00:51:41.367Z,20.55
2018-06-11T00:54:10.686Z,18.62
2018-06-11T00:56:39.980Z,22.25
2018-06-11T00:59:09.348Z,20.10
2018-06-11T01:01:38.573Z,19.85
2018-06-11T01:04:07.863Z,20.57
2018-06-11T01:06:37.147Z,19.42
2018-06-11T01:09:08.254Z,21.17
2018-06-11T01:11:37.488Z,21.60
2018-06-11T01:14:06.767Z,23.15
2018-06-11T01:16:35.988Z,22.55
2018-06-11T01:19:05.300Z,19.02
2018-06-11T01:21:35.726Z,23.02
2018-06-11T01:24:05.023Z,22.40
2018-06-11T01:26:34.272Z,23.95
2018-06-11T01:29:03.588Z,21.10
2018-06-11T01:31:32.856Z,20.60
2018-06-11T01:34:02.107Z,23.35
2018-06-11T01:36:31.350Z,24.18
2018-06-11T01:39:01.159Z,21.65
2018-06-11T01:41:30.507Z,19.25
2018-06-11T01:43:59.768Z,22.85
2018-06-11T01:46:29.104Z,19.55
2018-06-11T01:48:58.339Z,22.90
2018-06-11T01:51:27.589Z,23.50
2018-06-11T01:53:56.872Z,19.75
2018-06-11T01:56:26.117Z,23.07
2018-06-11T01:58:55.392Z,21.87
2018-06-11T02:01:24.755Z,18.92
2018-06-11T02:03:54.059Z,20.52
2018-06-11T02:06:23.390Z,19.70
2018-06-11T02:08:52.515Z,19.70
2018-06-11T02:11:22.172Z,23.00
2018-06-11T02:13:51.467Z,22.98
2018-06-11T02:16:20.752Z,16.40
2018-06-11T02:18:50.039Z,22.30
2018-06-11T02:21:19.292Z,20.32
2018-06-11T02:23:48.589Z,20.20
2018-06-11T02:26:17.918Z,19.65
2018-06-11T02:28:47.338Z,18.98
2018-06-11T02:31:16.748Z,18.30
2018-06-11T02:33:46.309Z,18.80
2018-06-11T02:36:15.592Z,18.35
2018-06-11T02:38:44.951Z,20.97
2018-06-11T02:41:14.265Z,20.15
2018-06-11T02:43:43.512Z,19.12
2018-06-11T02:46:12.724Z,17.40
2018-06-11T02:48:41.962Z,19.17
2018-06-11T02:51:11.172Z,17.60
2018-06-11T02:53:40.774Z,20.08
2018-06-11T02:56:10.684Z,20.48
2018-06-11T02:58:39.567Z,18.40
2018-06-11T03:01:08.718Z,17.80
2018-06-11T03:03:38.659Z,16.48
2018-06-11T03:06:07.907Z,14.90
2018-06-11T03:08:37.277Z,15.50
2018-06-11T03:11:06.722Z,16.07
2018-06-11T03:13:36.583Z,18.92
2018-06-11T03:16:05.919Z,16.60
2018-06-11T03:18:35.192Z,18.15
2018-06-11T03:21:04.436Z,16.57
2018-06-11T03:23:34.019Z,15.58
2018-06-11T03:26:03.348Z,15.32
2018-06-11T03:28:32.661Z,16.45
2018-06-11T03:31:01.923Z,13.93
2018-06-11T03:33:31.156Z,14.85
2018-06-11T03:36:00.439Z,14.68
2018-06-11T03:38:29.817Z,16.37
2018-06-11T03:40:59.104Z,16.35
2018-06-11T03:43:28.328Z,14.35
2018-06-11T03:45:57.568Z,16.10
2018-06-11T03:48:27.132Z,17.20
2018-06-11T03:50:56.459Z,15.35
2018-06-11T03:53:26.276Z,16.23
2018-06-11T03:55:55.636Z,16.02
2018-06-11T03:58:24.870Z,14.70
2018-06-11T04:00:54.128Z,17.25
2018-06-11T04:03:23.409Z,20.92
2018-06-11T04:05:53.845Z,17.00
2018-06-11T04:08:23.058Z,14.40
2018-06-11T04:10:52.425Z,19.05
2018-06-11T04:13:21.598Z,15.28
2018-06-11T04:15:50.925Z,15.98
2018-06-11T04:18:20.135Z,17.70
2018-06-11T04:20:49.804Z,16.60
2018-06-11T04:23:19.414Z,15.93
2018-06-11T04:25:48.664Z,14.93
2018-06-11T04:28:17.908Z,16.32
2018-06-11T04:30:47.172Z,16.73
2018-06-11T04:33:16.440Z,14.35
2018-06-11T04:35:45.730Z,13.05
2018-06-11T04:38:14.983Z,16.37
2018-06-11T04:40:44.243Z,15.20
2018-06-11T04:43:13.532Z,14.83
2018-06-11T04:45:42.733Z,13.53
2018-06-11T04:48:11.966Z,16.17
2018-06-11T04:50:41.199Z,14.05
2018-06-11T04:53:10.836Z,15.13
2018-06-11T04:55:40.173Z,14.45
2018-06-11T04:58:09.442Z,15.60
2018-06-11T05:00:38.767Z,14.65
2018-06-11T05:03:08.251Z,11.78
2018-06-11T05:05:37.487Z,16.97
2018-06-11T05:08:06.790Z,16.37
2018-06-11T05:10:36.172Z,16.90
2018-06-11T05:13:05.429Z,15.58
2018-06-11T05:15:34.680Z,14.07
2018-06-11T05:18:03.963Z,14.68
2018-06-11T05:20:33.200Z,14.65
2018-06-11T05:23:03.258Z,15.53
2018-06-11T05:25:32.531Z,14.13
2018-06-11T05:28:01.913Z,14.47
2018-06-11T05:30:31.175Z,15.00
2018-06-11T05:33:00.529Z,15.40
2018-06-11T05:35:29.743Z,14.35
2018-06-11T05:37:59.027Z,13.93
2018-06-11T05:40:28.272Z,15.78
2018-06-11T05:42:57.526Z,15.88
2018-06-11T05:45:27.164Z,12.63
2018-06-11T05:47:56.481Z,14.03
2018-06-11T05:50:25.695Z,17.80
2018-06-11T05:52:54.975Z,15.40
2018-06-11T05:55:24.228Z,14.83
2018-06-11T05:57:53.583Z,15.70
2018-06-11T06:00:22.786Z,15.43
2018-06-11T06:02:52.039Z,13.83
2018-06-11T06:05:21.299Z,15.78
2018-06-11T06:07:50.543Z,14.83
2018-06-11T06:10:20.319Z,15.48
2018-06-11T06:12:50.019Z,14.58
2018-06-11T06:15:19.619Z,14.53
2018-06-11T06:17:49.816Z,13.65
2018-06-11T06:20:19.164Z,15.45
2018-06-11T06:22:48.538Z,14.60
2018-06-11T06:25:18.423Z,15.93
2018-06-11T06:27:47.747Z,16.02
2018-06-11T06:30:17.106Z,15.45
2018-06-11T06:32:46.416Z,15.68
2018-06-11T06:35:15.643Z,17.75
2018-06-11T06:37:44.914Z,16.32
2018-06-11T06:40:15.169Z,15.08
2018-06-11T06:42:44.454Z,15.72
2018-06-11T06:45:13.730Z,14.98
2018-06-11T06:47:43.000Z,18.60
2018-06-11T06:50:12.247Z,16.42
2018-06-11T06:52:41.780Z,17.48
2018-06-11T06:55:11.022Z,16.73
2018-06-11T06:57:40.279Z,15.90
2018-06-11T07:00:10.264Z,16.93
2018-06-11T07:02:39.663Z,21.48
2018-06-11T07:05:09.127Z,18.73
2018-06-11T07:07:38.387Z,20.75
2018-06-11T07:10:07.694Z,20.08
2018-06-11T07:12:37.114Z,18.05
2018-06-11T07:15:06.372Z,18.07
2018-06-11T07:17:36.260Z,17.25
2018-06-11T07:20:05.563Z,18.35
2018-06-11T07:22:35.341Z,20.48
2018-06-11T07:25:04.687Z,18.92
2018-06-11T07:27:34.020Z,22.22
2018-06-11T07:30:03.697Z,17.35
2018-06-11T07:32:33.655Z,18.40
2018-06-11T07:35:03.029Z,17.10
2018-06-11T07:37:32.176Z,17.82
2018-06-11T07:40:01.464Z,18.92
2018-06-11T07:42:30.344Z,23.07
2018-06-11T07:44:59.464Z,19.50
2018-06-11T07:47:28.693Z,20.32
2018-06-11T07:49:57.949Z,22.13
2018-06-11T07:52:27.220Z,21.17
2018-06-11T07:54:56.507Z,23.18
2018-06-11T07:57:26.483Z,20.80
2018-06-11T07:59:55.809Z,21.85
2018-06-11T08:02:25.752Z,22.02
2018-06-11T08:04:55.031Z,25.52
2018-06-11T08:07:24.010Z,21.30
2018-06-11T08:09:53.309Z,20.75
2018-06-11T08:12:22.547Z,30.62
2018-06-11T08:14:51.783Z,27.10
2018-06-11T08:17:21.068Z,31.45
2018-06-11T08:19:50.345Z,33.05
2018-06-11T08:22:20.272Z,31.90
2018-06-11T08:24:49.981Z,31.80
2018-06-11T08:27:19.349Z,31.75
2018-06-11T08:29:49.349Z,34.48
2018-06-11T08:32:18.587Z,34.13
2018-06-11T08:34:48.297Z,33.20
2018-06-11T08:37:17.573Z,34.63
2018-06-11T08:39:46.856Z,33.15
2018-06-11T08:42:16.103Z,28.55
2018-06-11T08:44:46.311Z,28.73
2018-06-11T08:47:15.558Z,30.57
2018-06-11T08:49:44.844Z,28.47
2018-06-11T08:52:14.104Z,27.25
2018-06-11T08:54:43.523Z,23.25
2018-06-11T08:57:12.769Z,27.73
2018-06-11T08:59:42.004Z,20.85
2018-06-11T09:02:11.660Z,24.15
2018-06-11T09:04:40.967Z,24.15
2018-06-11T09:07:10.261Z,27.30
2018-06-11T09:09:39.479Z,24.72
2018-06-11T09:12:08.801Z,26.90
2018-06-11T09:14:38.071Z,26.57
2018-06-11T09:17:07.495Z,25.10
2018-06-11T09:19:36.780Z,27.48
2018-06-11T09:22:06.273Z,28.83
2018-06-11T09:24:35.872Z,30.15
2018-06-11T09:27:05.171Z,30.27
2018-06-11T09:29:35.261Z,32.13
2018-06-11T09:32:04.539Z,34.00
2018-06-11T09:34:33.770Z,29.25
2018-06-11T09:37:03.185Z,32.50
2018-06-11T09:39:32.500Z,27.82
2018-06-11T09:42:01.812Z,34.67
2018-06-11T09:44:31.144Z,32.40
2018-06-11T09:47:00.417Z,30.32
2018-06-11T09:49:29.663Z,28.92
2018-06-11T09:51:58.916Z,26.55
2018-06-11T09:54:28.192Z,33.85
2018-06-11T09:56:57.510Z,31.23
2018-06-11T09:59:27.360Z,32.80
2018-06-11T10:01:56.721Z,32.95
2018-06-11T10:04:25.947Z,32.73
2018-06-11T10:06:55.273Z,34.03
2018-06-11T10:09:24.523Z,32.00
2018-06-11T10:11:54.263Z,28.20
2018-06-11T10:14:23.520Z,32.23
2018-06-11T10:16:52.793Z,34.33
2018-06-11T10:19:23.051Z,32.75
2018-06-11T10:21:52.299Z,36.48
2018-06-11T10:24:21.680Z,33.88
2018-06-11T10:26:51.043Z,34.03
2018-06-11T10:29:20.335Z,32.30
2018-06-11T10:31:49.590Z,31.62
2018-06-11T10:34:19.634Z,31.33
2018-06-11T10:36:48.996Z,31.48
2018-06-11T10:39:18.884Z,31.70
2018-06-11T10:41:48.209Z,31.20
2018-06-11T10:44:17.796Z,29.87
2018-06-11T10:46:47.183Z,36.40
2018-06-11T10:49:16.759Z,31.70
2018-06-11T10:51:46.075Z,29.18
2018-06-11T10:54:15.317Z,30.88
2018-06-11T10:56:44.625Z,28.60
2018-06-11T10:59:14.284Z,26.02
2018-06-11T11:01:43.627Z,26.85
2018-06-11T11:04:13.574Z,24.40
2018-06-11T11:06:42.922Z,27.98
2018-06-11T11:09:12.211Z,22.20
2018-06-11T11:11:41.478Z,25.12
2018-06-11T11:14:11.265Z,24.40
2018-06-11T11:16:40.537Z,26.85
2018-06-11T11:19:09.862Z,24.02
2018-06-11T11:21:39.202Z,23.60
2018-06-11T11:24:08.509Z,21.12
2018-06-11T11:26:37.802Z,16.17
2018-06-11T11:29:07.086Z,16.42
2018-06-11T11:31:36.686Z,17.95
2018-06-11T11:34:05.896Z,19.85
2018-06-11T11:36:35.163Z,19.12
2018-06-11T11:39:06.939Z,18.42
2018-06-11T11:41:36.204Z,19.32
2018-06-11T11:44:05.499Z,13.28
2018-06-11T11:46:34.758Z,14.43
2018-06-11T11:49:04.034Z,16.15
2018-06-11T11:51:34.440Z,14.93
2018-06-11T11:54:03.729Z,13.08
2018-06-11T11:56:33.765Z,14.07
2018-06-11T11:59:03.028Z,13.53
2018-06-11T12:01:36.601Z,14.80
2018-06-11T12:04:06.010Z,15.72
2018-06-11T12:06:35.265Z,12.10
2018-06-11T12:09:06.855Z,13.53
2018-06-11T12:11:36.260Z,15.08
2018-06-11T12:14:05.514Z,14.65
2018-06-11T12:16:34.782Z,12.45
2018-06-11T12:19:04.155Z,14.50
2018-06-11T12:21:33.356Z,13.72
2018-06-11T12:24:02.619Z,11.97
2018-06-11T12:26:31.956Z,13.50
2018-06-11T12:29:01.308Z,15.83
2018-06-11T12:31:30.654Z,11.48
2018-06-11T12:33:59.871Z,11.90
2018-06-11T12:36:29.143Z,13.45
2018-06-11T12:38:58.589Z,12.98
2018-06-11T12:41:28.370Z,11.65
2018-06-11T12:43:57.659Z,10.38
2018-06-11T12:46:26.905Z,13.00
2018-06-11T12:48:56.190Z,11.83
2018-06-11T12:51:25.465Z,12.50
2018-06-11T12:53:54.871Z,14.38
2018-06-11T12:56:24.513Z,12.15
2018-06-11T12:58:54.060Z,11.43
2018-06-11T13:01:23.370Z,13.88
2018-06-11T13:03:52.679Z,11.12
2018-06-11T13:06:22.044Z,15.28
2018-06-11T13:08:51.345Z,13.40
2018-06-11T13:11:21.355Z,9.53
2018-06-11T13:13:50.741Z,11.30
2018-06-11T13:16:20.028Z,12.25
2018-06-11T13:18:50.078Z,11.73
2018-06-11T13:21:19.951Z,11.53
2018-06-11T13:23:49.251Z,9.60
2018-06-11T13:26:19.110Z,10.82
2018-06-11T13:28:48.941Z,8.80
2018-06-11T13:31:18.195Z,9.98
2018-06-11T13:33:48.664Z,11.28
2018-06-11T13:36:17.961Z,6.83
2018-06-11T13:38:47.975Z,8.48
2018-06-11T13:41:17.221Z,8.27
2018-06-11T13:43:47.047Z,9.53
2018-06-11T13:46:16.333Z,8.23
2018-06-11T13:48:45.557Z,7.47
2018-06-11T13:51:14.909Z,9.00
2018-06-11T13:53:44.072Z,6.72
2018-06-11T13:56:13.340Z,5.72
2018-06-11T13:58:42.923Z,5.80
2018-06-11T14:01:12.216Z,6.10
2018-06-11T14:03:41.532Z,8.58
2018-06-11T14:06:11.746Z,7.70
2018-06-11T14:08:40.967Z,6.75
2018-06-11T14:11:10.590Z,6.80
2018-06-11T14:13:40.444Z,6.50
2018-06-11T14:16:10.196Z,7.87
2018-06-11T14:18:39.469Z,5.78
2018-06-11T14:21:08.766Z,6.30
2018-06-11T14:23:38.013Z,6.05
2018-06-11T14:26:07.652Z,5.55
2018-06-11T14:28:37.007Z,5.67
2018-06-11T14:31:06.356Z,5.10
2018-06-11T14:33:35.584Z,6.30
2018-06-11T14:36:04.972Z,5.85
2018-06-11T14:38:34.206Z,5.58
2018-06-11T14:41:03.538Z,6.35
2018-06-11T14:43:32.823Z,6.35
2018-06-11T14:46:02.100Z,6.53
2018-06-11T14:48:31.373Z,7.33
2018-06-11T14:51:00.656Z,6.17
2018-06-11T14:53:29.928Z,6.20
2018-06-11T14:55:59.200Z,4.78
2018-06-11T14:58:28.464Z,4.87
2018-06-11T15:00:57.833Z,5.97
2018-06-11T15:03:27.081Z,6.33
2018-06-11T15:05:56.727Z,6.05
2018-06-11T15:08:25.999Z,4.65
2018-06-11T15:10:56.066Z,5.80
2018-06-11T15:13:25.336Z,4.50
2018-06-11T15:15:54.635Z,7.12
2018-06-11T15:18:23.940Z,6.03
2018-06-11T15:20:53.213Z,6.22
2018-06-11T15:23:22.471Z,5.45
2018-06-11T15:25:51.728Z,5.45
2018-06-11T15:28:21.039Z,5.47
2018-06-11T15:30:50.399Z,6.78
2018-06-11T15:33:19.628Z,5.72
2018-06-11T15:35:48.893Z,6.90
2018-06-11T15:38:18.135Z,6.42
2018-06-11T15:40:47.443Z,5.22
2018-06-11T15:43:16.798Z,5.33
2018-06-11T15:45:46.076Z,6.47
2018-06-11T15:48:15.333Z,6.35
2018-06-11T15:50:44.548Z,5.95
2018-06-11T15:53:13.832Z,5.12
2018-06-11T15:55:43.051Z,4.35
2018-06-11T15:58:12.325Z,5.20
2018-06-11T16:00:42.260Z,4.70
2018-06-11T16:03:11.580Z,6.70
2018-06-11T16:05:41.205Z,6.17
2018-06-11T16:08:10.966Z,7.42
2018-06-11T16:10:40.241Z,6.17
2018-06-11T16:13:09.476Z,8.98
2018-06-11T16:15:38.814Z,7.72
2018-06-11T16:18:08.117Z,5.35
2018-06-11T16:20:38.130Z,6.15
2018-06-11T16:23:07.728Z,8.78
2018-06-11T16:25:36.950Z,7.25
2018-06-11T16:28:06.912Z,7.33
2018-06-11T16:30:36.817Z,6.10
2018-06-11T16:33:06.187Z,7.85
2018-06-11T16:35:35.440Z,7.55
2018-06-11T16:38:04.777Z,7.30
2018-06-11T16:40:34.111Z,6.20
2018-06-11T16:43:03.453Z,5.55
2018-06-11T16:45:32.701Z,6.22
2018-06-11T16:48:01.975Z,5.65
2018-06-11T16:50:31.930Z,7.83
2018-06-11T16:53:01.197Z,9.40
2018-06-11T16:55:30.489Z,7.50
2018-06-11T16:57:59.752Z,7.92
2018-06-11T17:00:29.004Z,5.92
2018-06-11T17:02:58.256Z,8.45
2018-06-11T17:05:27.594Z,8.95
2018-06-11T17:07:56.914Z,10.40
2018-06-11T17:10:26.192Z,8.00
2018-06-11T17:12:55.591Z,7.03
2018-06-11T17:15:24.879Z,7.90
2018-06-11T17:17:54.140Z,8.40
2018-06-11T17:20:23.417Z,10.15
2018-06-11T17:22:52.739Z,8.18
2018-06-11T17:25:22.035Z,7.70
2018-06-11T17:27:52.459Z,8.05
2018-06-11T17:30:21.856Z,9.18
2018-06-11T17:32:51.171Z,8.78
2018-06-11T17:35:20.490Z,10.43
2018-06-11T17:37:49.752Z,9.18
2018-06-11T17:40:19.019Z,8.95
2018-06-11T17:42:48.317Z,10.00
2018-06-11T17:45:17.569Z,9.38
2018-06-11T17:47:46.940Z,10.48
2018-06-11T17:50:16.220Z,9.00
2018-06-11T17:52:45.583Z,7.75
2018-06-11T17:55:14.923Z,10.00
2018-06-11T17:57:44.223Z,6.53
2018-06-11T18:00:13.502Z,5.58
2018-06-11T18:02:42.779Z,7.00
2018-06-11T18:05:13.000Z,7.95
2018-06-11T18:07:42.278Z,8.80
2018-06-11T18:10:11.646Z,5.72
2018-06-11T18:12:40.908Z,6.75
2018-06-11T18:15:10.250Z,6.35
2018-06-11T18:17:39.549Z,6.17
2018-06-11T18:20:08.861Z,6.45
2018-06-11T18:22:38.225Z,7.62
2018-06-11T18:25:07.533Z,6.03
2018-06-11T18:27:36.771Z,7.70
2018-06-11T18:30:06.107Z,10.45
2018-06-11T18:32:36.075Z,6.78
2018-06-11T18:35:05.366Z,7.37
2018-06-11T18:37:34.629Z,5.97
2018-06-11T18:40:04.008Z,6.42
2018-06-11T18:42:33.292Z,7.42
2018-06-11T18:45:02.571Z,8.65
2018-06-11T18:47:31.861Z,6.92
2018-06-11T18:50:01.190Z,6.78
2018-06-11T18:52:30.509Z,7.40
2018-06-11T18:54:59.866Z,7.78
2018-06-11T18:57:29.587Z,5.12
2018-06-11T18:59:58.873Z,6.60
2018-06-11T19:02:28.567Z,7.33
2018-06-11T19:04:58.508Z,5.60
2018-06-11T19:07:27.422Z,5.03
2018-06-11T19:09:56.747Z,6.70
2018-06-11T19:12:26.147Z,6.20
2018-06-11T19:14:56.171Z,6.40
2018-06-11T19:17:26.261Z,6.95
2018-06-11T19:19:56.380Z,6.15
2018-06-11T19:22:26.059Z,5.97
2018-06-11T19:24:56.843Z,8.95
2018-06-11T19:27:26.361Z,6.22
2018-06-11T19:29:55.806Z,6.92
2018-06-11T19:32:25.204Z,6.40
2018-06-11T19:34:54.498Z,7.10
2018-06-11T19:37:23.761Z,6.08
2018-06-11T19:39:53.204Z,5.95
2018-06-11T19:42:22.500Z,5.90
2018-06-11T19:44:51.857Z,8.05
2018-06-11T19:47:21.210Z,5.10
2018-06-11T19:49:50.668Z,5.53
2018-06-11T19:52:19.793Z,7.67
2018-06-11T19:54:49.236Z,6.55
2018-06-11T19:57:18.467Z,7.95
2018-06-11T19:59:47.813Z,6.42
2018-06-11T20:02:17.196Z,6.58
2018-06-11T20:04:46.471Z,6.47
2018-06-11T20:07:15.758Z,8.40
2018-06-11T20:09:45.208Z,6.35
2018-06-11T20:12:14.547Z,6.60
2018-06-11T20:14:44.481Z,6.50
2018-06-11T20:17:15.931Z,5.87
2018-06-11T20:19:45.307Z,5.83
2018-06-11T20:22:14.629Z,5.70
2018-06-11T20:24:44.011Z,7.05
2018-06-11T20:27:13.321Z,7.58
2018-06-11T20:29:42.619Z,5.72
2018-06-11T20:32:12.497Z,7.42
2018-06-11T20:34:41.851Z,6.58
2018-06-11T20:37:11.186Z,7.58
2018-06-11T20:39:40.488Z,9.93
2018-06-11T20:42:09.842Z,11.25
2018-06-11T20:44:39.242Z,6.55
2018-06-11T20:47:08.424Z,5.67
2018-06-11T20:49:37.714Z,6.05
2018-06-11T20:52:07.092Z,6.15
2018-06-11T20:54:36.360Z,6.53
2018-06-11T20:57:05.743Z,6.35
2018-06-11T20:59:35.152Z,7.80
2018-06-11T21:02:04.562Z,6.50
2018-06-11T21:04:33.833Z,7.60
2018-06-11T21:07:03.272Z,5.97
2018-06-11T21:09:33.239Z,7.60
2018-06-11T21:12:02.571Z,6.95
2018-06-11T21:14:31.873Z,6.22
2018-06-11T21:17:01.200Z,6.28
2018-06-11T21:19:30.469Z,7.92
2018-06-11T21:21:59.776Z,6.83
2018-06-11T21:24:29.119Z,6.75
2018-06-11T21:26:58.412Z,7.40
2018-06-11T21:29:27.709Z,6.83
2018-06-11T21:31:57.756Z,8.20
2018-06-11T21:34:27.707Z,7.45
2018-06-11T21:36:57.004Z,8.43
2018-06-11T21:39:26.274Z,7.95
2018-06-11T21:41:55.612Z,7.05
2018-06-11T21:44:25.511Z,7.37
2018-06-11T21:46:54.830Z,7.47
2018-06-11T21:49:24.465Z,7.37
2018-06-11T21:51:53.944Z,8.63
2018-06-11T21:54:23.260Z,7.72
2018-06-11T21:56:52.668Z,9.93
2018-06-11T21:59:21.935Z,7.10
2018-06-11T22:01:51.228Z,8.40
2018-06-11T22:04:20.524Z,7.60
2018-06-11T22:06:49.801Z,8.20
2018-06-11T22:09:19.136Z,7.15
2018-06-11T22:11:48.553Z,7.97
2018-06-11T22:14:17.795Z,7.92
2018-06-11T22:16:47.119Z,7.95
2018-06-11T22:19:16.400Z,8.48
2018-06-11T22:21:45.714Z,8.30
2018-06-11T22:24:15.481Z,9.83
2018-06-11T22:26:44.722Z,8.88
2018-06-11T22:29:14.142Z,8.90
2018-06-11T22:31:43.417Z,9.08
2018-06-11T22:34:12.685Z,9.33
2018-06-11T22:36:42.008Z,8.03
2018-06-11T22:39:11.245Z,8.25
2018-06-11T22:41:40.522Z,7.87
2018-06-11T22:44:09.925Z,7.87
2018-06-11T22:46:39.235Z,8.55
2018-06-11T22:49:08.521Z,8.55
2018-06-11T22:51:37.847Z,8.88
2018-06-11T22:54:07.079Z,8.60
2018-06-11T22:56:36.917Z,9.08
2018-06-11T22:59:06.143Z,9.53
2018-06-11T23:01:35.436Z,10.10
2018-06-11T23:04:05.280Z,9.98
2018-06-11T23:06:34.500Z,8.93
2018-06-11T23:09:05.481Z,8.30
2018-06-11T23:11:34.743Z,9.55
2018-06-11T23:14:04.693Z,9.08
2018-06-11T23:16:34.334Z,10.15
2018-06-11T23:19:03.655Z,10.55
2018-06-11T23:21:32.978Z,9.35
2018-06-11T23:24:03.166Z,10.48
2018-06-11T23:26:32.440Z,10.85
2018-06-11T23:29:01.691Z,9.88
2018-06-11T23:31:31.292Z,10.60
2018-06-11T23:34:00.585Z,10.15
2018-06-11T23:36:29.936Z,9.65
2018-06-11T23:38:59.223Z,8.38
2018-06-11T23:41:28.501Z,10.20
2018-06-11T23:43:57.768Z,8.98
2018-06-11T23:46:27.024Z,9.60
2018-06-11T23:48:56.296Z,8.43
2018-06-11T23:51:25.540Z,9.50
2018-06-11T23:53:54.804Z,10.05
2018-06-11T23:56:24.098Z,9.60
2018-06-11T23:58:53.373Z,8.85
